sensor_id;sensor_type;location;lat;lon;timestamp;P1;durP1;ratioP1;P2;durP2;ratioP2
15385;SDS011;7791;47.246;9.648;2023-06-19T00:03:18;11.93;;;9.03;;
15385;SDS011;7791;47.246;9.648;2023-06-19T00:06:01;10.50;;;8.80;;
15385;SDS011;7791;47.246;9.648;2023-06-19T00:08:42;11.27;;;8.87;;
15385;SDS011;7791;47.246;9.648;2023-06-19T00:11:27;10.70;;;8.77;;
15385;SDS011;7791;47.246;9.648;2023-06-19T00:14:15;10.07;;;8.70;;
15385;SDS011;7791;47.246;9.648;2023-06-19T00:16:54;10.40;;;9.00;;
15385;SDS011;7791;47.246;9.648;2023-06-19T00:19:26;11.60;;;9.13;;
15385;SDS011;7791;47.246;9.648;2023-06-19T00:24:43;14.00;;;9.67;;
15385;SDS011;7791;47.246;9.648;2023-06-19T00:27:25;9.87;;;8.57;;
15385;SDS011;7791;47.246;9.648;2023-06-19T00:30:10;10.93;;;9.20;;
15385;SDS011;7791;47.246;9.648;2023-06-19T00:32:52;12.80;;;8.80;;
15385;SDS011;7791;47.246;9.648;2023-06-19T00:35:51;13.93;;;9.40;;
15385;SDS011;7791;47.246;9.648;2023-06-19T00:41:35;12.10;;;9.50;;
15385;SDS011;7791;47.246;9.648;2023-06-19T00:44:12;12.80;;;9.17;;
15385;SDS011;7791;47.246;9.648;2023-06-19T00:46:48;11.20;;;9.27;;
15385;SDS011;7791;47.246;9.648;2023-06-19T00:49:42;12.50;;;9.80;;
15385;SDS011;7791;47.246;9.648;2023-06-19T00:55:28;12.60;;;9.67;;
15385;SDS011;7791;47.246;9.648;2023-06-19T00:58:07;11.80;;;9.70;;
15385;SDS011;7791;47.246;9.648;2023-06-19T01:06:17;13.37;;;10.40;;
15385;SDS011;7791;47.246;9.648;2023-06-19T01:08:52;13.20;;;9.93;;
15385;SDS011;7791;47.246;9.648;2023-06-19T01:11:46;12.33;;;9.67;;
15385;SDS011;7791;47.246;9.648;2023-06-19T01:14:49;10.60;;;9.50;;
15385;SDS011;7791;47.246;9.648;2023-06-19T01:17:34;11.07;;;9.27;;
15385;SDS011;7791;47.246;9.648;2023-06-19T01:20:13;12.47;;;9.67;;
15385;SDS011;7791;47.246;9.648;2023-06-19T01:23:00;11.67;;;9.10;;
15385;SDS011;7791;47.246;9.648;2023-06-19T01:25:50;12.80;;;9.80;;
15385;SDS011;7791;47.246;9.648;2023-06-19T01:28:29;12.87;;;9.37;;
15385;SDS011;7791;47.246;9.648;2023-06-19T01:31:15;16.40;;;9.83;;
15385;SDS011;7791;47.246;9.648;2023-06-19T01:33:59;11.60;;;9.33;;
15385;SDS011;7791;47.246;9.648;2023-06-19T01:36:41;10.97;;;9.57;;
15385;SDS011;7791;47.246;9.648;2023-06-19T01:42:06;13.90;;;9.30;;
15385;SDS011;7791;47.246;9.648;2023-06-19T01:45:03;11.87;;;9.30;;
15385;SDS011;7791;47.246;9.648;2023-06-19T01:47:43;14.37;;;9.43;;
15385;SDS011;7791;47.246;9.648;2023-06-19T01:50:19;10.43;;;9.07;;
15385;SDS011;7791;47.246;9.648;2023-06-19T01:52:59;11.10;;;8.90;;
15385;SDS011;7791;47.246;9.648;2023-06-19T01:58:41;12.53;;;10.40;;
15385;SDS011;7791;47.246;9.648;2023-06-19T02:04:01;13.87;;;10.50;;
15385;SDS011;7791;47.246;9.648;2023-06-19T02:06:37;10.93;;;9.77;;
15385;SDS011;7791;47.246;9.648;2023-06-19T02:09:03;11.40;;;10.20;;
15385;SDS011;7791;47.246;9.648;2023-06-19T02:11:39;12.30;;;10.03;;
15385;SDS011;7791;47.246;9.648;2023-06-19T02:16:57;12.77;;;11.13;;
15385;SDS011;7791;47.246;9.648;2023-06-19T02:19:43;14.00;;;11.00;;
15385;SDS011;7791;47.246;9.648;2023-06-19T02:22:22;13.80;;;11.07;;
15385;SDS011;7791;47.246;9.648;2023-06-19T02:25:04;13.00;;;10.70;;
15385;SDS011;7791;47.246;9.648;2023-06-19T02:27:35;13.30;;;11.47;;
15385;SDS011;7791;47.246;9.648;2023-06-19T02:33:30;12.57;;;11.00;;
15385;SDS011;7791;47.246;9.648;2023-06-19T02:36:12;14.57;;;10.67;;
15385;SDS011;7791;47.246;9.648;2023-06-19T02:39:03;14.50;;;10.90;;
15385;SDS011;7791;47.246;9.648;2023-06-19T02:42:12;11.20;;;10.07;;
15385;SDS011;7791;47.246;9.648;2023-06-19T02:44:38;13.13;;;10.40;;
15385;SDS011;7791;47.246;9.648;2023-06-19T02:47:21;11.77;;;10.53;;
15385;SDS011;7791;47.246;9.648;2023-06-19T02:49:53;11.90;;;10.60;;
15385;SDS011;7791;47.246;9.648;2023-06-19T02:52:39;13.10;;;10.90;;
15385;SDS011;7791;47.246;9.648;2023-06-19T02:55:20;13.37;;;11.23;;
15385;SDS011;7791;47.246;9.648;2023-06-19T02:57:56;13.10;;;9.80;;
15385;SDS011;7791;47.246;9.648;2023-06-19T03:03:30;17.27;;;11.03;;
15385;SDS011;7791;47.246;9.648;2023-06-19T03:06:11;16.90;;;11.20;;
15385;SDS011;7791;47.246;9.648;2023-06-19T03:08:43;14.53;;;10.97;;
15385;SDS011;7791;47.246;9.648;2023-06-19T03:11:18;14.27;;;11.27;;
15385;SDS011;7791;47.246;9.648;2023-06-19T03:13:56;14.83;;;11.07;;
15385;SDS011;7791;47.246;9.648;2023-06-19T03:16:37;14.17;;;11.77;;
15385;SDS011;7791;47.246;9.648;2023-06-19T03:19:19;15.20;;;11.53;;
15385;SDS011;7791;47.246;9.648;2023-06-19T03:21:55;14.57;;;11.67;;
15385;SDS011;7791;47.246;9.648;2023-06-19T03:27:40;16.37;;;11.50;;
15385;SDS011;7791;47.246;9.648;2023-06-19T03:30:26;12.17;;;10.27;;
15385;SDS011;7791;47.246;9.648;2023-06-19T03:33:05;12.77;;;11.03;;
15385;SDS011;7791;47.246;9.648;2023-06-19T03:35:47;13.07;;;11.20;;
15385;SDS011;7791;47.246;9.648;2023-06-19T03:38:51;12.83;;;11.03;;
15385;SDS011;7791;47.246;9.648;2023-06-19T03:41:35;13.43;;;10.93;;
15385;SDS011;7791;47.246;9.648;2023-06-19T03:44:16;13.67;;;11.07;;
15385;SDS011;7791;47.246;9.648;2023-06-19T03:49:44;14.07;;;10.67;;
15385;SDS011;7791;47.246;9.648;2023-06-19T03:55:16;11.77;;;10.00;;
15385;SDS011;7791;47.246;9.648;2023-06-19T03:58:59;13.77;;;11.13;;
15385;SDS011;7791;47.246;9.648;2023-06-19T04:01:07;12.87;;;9.90;;
15385;SDS011;7791;47.246;9.648;2023-06-19T04:03:54;12.60;;;10.53;;
15385;SDS011;7791;47.246;9.648;2023-06-19T04:06:40;17.33;;;11.63;;
15385;SDS011;7791;47.246;9.648;2023-06-19T04:09:24;12.33;;;11.03;;
15385;SDS011;7791;47.246;9.648;2023-06-19T04:12:01;13.63;;;11.30;;
15385;SDS011;7791;47.246;9.648;2023-06-19T04:14:46;13.10;;;11.27;;
15385;SDS011;7791;47.246;9.648;2023-06-19T04:17:13;12.57;;;11.27;;
15385;SDS011;7791;47.246;9.648;2023-06-19T04:20:04;14.33;;;10.83;;
15385;SDS011;7791;47.246;9.648;2023-06-19T04:22:40;11.97;;;10.10;;
15385;SDS011;7791;47.246;9.648;2023-06-19T04:28:26;12.17;;;10.17;;
15385;SDS011;7791;47.246;9.648;2023-06-19T04:30:58;10.73;;;9.63;;
15385;SDS011;7791;47.246;9.648;2023-06-19T04:33:50;13.27;;;10.57;;
15385;SDS011;7791;47.246;9.648;2023-06-19T04:36:22;12.27;;;10.53;;
15385;SDS011;7791;47.246;9.648;2023-06-19T04:38:58;12.00;;;10.07;;
15385;SDS011;7791;47.246;9.648;2023-06-19T04:41:29;12.73;;;10.70;;
15385;SDS011;7791;47.246;9.648;2023-06-19T04:44:04;16.83;;;10.10;;
15385;SDS011;7791;47.246;9.648;2023-06-19T04:46:40;13.20;;;10.57;;
15385;SDS011;7791;47.246;9.648;2023-06-19T04:49:34;13.53;;;9.97;;
15385;SDS011;7791;47.246;9.648;2023-06-19T04:52:36;16.87;;;11.10;;
15385;SDS011;7791;47.246;9.648;2023-06-19T04:55:12;13.93;;;10.80;;
15385;SDS011;7791;47.246;9.648;2023-06-19T04:57:51;13.73;;;10.63;;
15385;SDS011;7791;47.246;9.648;2023-06-19T05:00:45;12.03;;;9.70;;
15385;SDS011;7791;47.246;9.648;2023-06-19T05:06:06;11.70;;;9.83;;
15385;SDS011;7791;47.246;9.648;2023-06-19T05:08:44;11.60;;;9.70;;
15385;SDS011;7791;47.246;9.648;2023-06-19T05:11:23;15.83;;;9.83;;
15385;SDS011;7791;47.246;9.648;2023-06-19T05:14:12;14.57;;;9.70;;
15385;SDS011;7791;47.246;9.648;2023-06-19T05:16:53;19.27;;;10.50;;
15385;SDS011;7791;47.246;9.648;2023-06-19T05:19:28;59.37;;;11.90;;
15385;SDS011;7791;47.246;9.648;2023-06-19T05:22:19;12.33;;;8.60;;
15385;SDS011;7791;47.246;9.648;2023-06-19T05:24:53;19.88;;;8.48;;
15385;SDS011;7791;47.246;9.648;2023-06-19T05:27:32;9.35;;;8.07;;
15385;SDS011;7791;47.246;9.648;2023-06-19T05:30:21;11.38;;;8.50;;
15385;SDS011;7791;47.246;9.648;2023-06-19T05:33:01;9.50;;;8.45;;
15385;SDS011;7791;47.246;9.648;2023-06-19T05:35:42;9.13;;;7.90;;
15385;SDS011;7791;47.246;9.648;2023-06-19T05:38:18;9.20;;;8.00;;
15385;SDS011;7791;47.246;9.648;2023-06-19T05:41:04;10.52;;;8.73;;
15385;SDS011;7791;47.246;9.648;2023-06-19T05:43:47;13.10;;;8.52;;
15385;SDS011;7791;47.246;9.648;2023-06-19T05:46:35;9.35;;;8.07;;
15385;SDS011;7791;47.246;9.648;2023-06-19T05:52:07;10.20;;;8.02;;
15385;SDS011;7791;47.246;9.648;2023-06-19T05:54:46;8.82;;;7.75;;
15385;SDS011;7791;47.246;9.648;2023-06-19T05:57:22;8.95;;;7.28;;
15385;SDS011;7791;47.246;9.648;2023-06-19T06:00:10;9.57;;;7.38;;
15385;SDS011;7791;47.246;9.648;2023-06-19T06:02:47;8.70;;;7.15;;
15385;SDS011;7791;47.246;9.648;2023-06-19T06:05:14;8.35;;;6.97;;
15385;SDS011;7791;47.246;9.648;2023-06-19T06:07:48;9.90;;;7.15;;
15385;SDS011;7791;47.246;9.648;2023-06-19T06:10:20;7.85;;;6.80;;
15385;SDS011;7791;47.246;9.648;2023-06-19T06:12:52;9.05;;;6.80;;
15385;SDS011;7791;47.246;9.648;2023-06-19T06:15:27;7.57;;;6.85;;
15385;SDS011;7791;47.246;9.648;2023-06-19T06:18:22;9.25;;;7.00;;
15385;SDS011;7791;47.246;9.648;2023-06-19T06:21:02;8.13;;;6.57;;
15385;SDS011;7791;47.246;9.648;2023-06-19T06:23:40;8.93;;;6.43;;
15385;SDS011;7791;47.246;9.648;2023-06-19T06:26:13;7.90;;;6.57;;
15385;SDS011;7791;47.246;9.648;2023-06-19T06:28:46;11.30;;;6.55;;
15385;SDS011;7791;47.246;9.648;2023-06-19T06:31:27;8.55;;;6.55;;
15385;SDS011;7791;47.246;9.648;2023-06-19T06:34:11;10.30;;;6.47;;
15385;SDS011;7791;47.246;9.648;2023-06-19T06:36:46;7.75;;;6.60;;
15385;SDS011;7791;47.246;9.648;2023-06-19T06:39:35;8.63;;;5.88;;
15385;SDS011;7791;47.246;9.648;2023-06-19T06:42:05;7.13;;;6.03;;
15385;SDS011;7791;47.246;9.648;2023-06-19T06:44:45;7.30;;;6.05;;
15385;SDS011;7791;47.246;9.648;2023-06-19T06:47:17;8.25;;;6.18;;
15385;SDS011;7791;47.246;9.648;2023-06-19T06:50:02;6.43;;;5.63;;
15385;SDS011;7791;47.246;9.648;2023-06-19T06:52:44;10.40;;;6.15;;
15385;SDS011;7791;47.246;9.648;2023-06-19T06:55:24;7.10;;;5.70;;
15385;SDS011;7791;47.246;9.648;2023-06-19T06:58:09;11.65;;;6.05;;
15385;SDS011;7791;47.246;9.648;2023-06-19T07:00:46;7.45;;;5.30;;
15385;SDS011;7791;47.246;9.648;2023-06-19T07:03:33;6.10;;;5.50;;
15385;SDS011;7791;47.246;9.648;2023-06-19T07:06:15;5.72;;;5.18;;
15385;SDS011;7791;47.246;9.648;2023-06-19T07:08:59;26.27;;;8.68;;
15385;SDS011;7791;47.246;9.648;2023-06-19T07:11:32;308.70;;;35.35;;
15385;SDS011;7791;47.246;9.648;2023-06-19T07:14:07;5.93;;;5.43;;
15385;SDS011;7791;47.246;9.648;2023-06-19T07:19:48;5.97;;;5.38;;
15385;SDS011;7791;47.246;9.648;2023-06-19T07:25:29;7.90;;;5.25;;
15385;SDS011;7791;47.246;9.648;2023-06-19T07:28:03;5.70;;;5.20;;
15385;SDS011;7791;47.246;9.648;2023-06-19T07:30:36;6.85;;;5.20;;
15385;SDS011;7791;47.246;9.648;2023-06-19T07:36:09;6.07;;;5.35;;
15385;SDS011;7791;47.246;9.648;2023-06-19T07:38:50;6.43;;;5.80;;
15385;SDS011;7791;47.246;9.648;2023-06-19T07:41:32;7.40;;;5.18;;
15385;SDS011;7791;47.246;9.648;2023-06-19T07:44:10;5.68;;;5.07;;
15385;SDS011;7791;47.246;9.648;2023-06-19T07:46:51;5.70;;;5.20;;
15385;SDS011;7791;47.246;9.648;2023-06-19T07:49:30;7.32;;;5.22;;
15385;SDS011;7791;47.246;9.648;2023-06-19T07:52:10;7.03;;;5.15;;
15385;SDS011;7791;47.246;9.648;2023-06-19T07:54:56;6.38;;;5.22;;
15385;SDS011;7791;47.246;9.648;2023-06-19T07:57:34;6.32;;;5.72;;
15385;SDS011;7791;47.246;9.648;2023-06-19T08:00:12;7.85;;;5.60;;
15385;SDS011;7791;47.246;9.648;2023-06-19T08:03:03;6.10;;;5.32;;
15385;SDS011;7791;47.246;9.648;2023-06-19T08:05:46;6.75;;;4.78;;
15385;SDS011;7791;47.246;9.648;2023-06-19T08:08:20;9.98;;;5.47;;
15385;SDS011;7791;47.246;9.648;2023-06-19T08:11:08;6.57;;;5.60;;
15385;SDS011;7791;47.246;9.648;2023-06-19T08:16:30;5.88;;;5.38;;
15385;SDS011;7791;47.246;9.648;2023-06-19T08:19:00;7.65;;;5.47;;
15385;SDS011;7791;47.246;9.648;2023-06-19T08:24:30;9.27;;;5.32;;
15385;SDS011;7791;47.246;9.648;2023-06-19T08:27:12;8.27;;;5.47;;
15385;SDS011;7791;47.246;9.648;2023-06-19T08:29:55;8.10;;;5.32;;
15385;SDS011;7791;47.246;9.648;2023-06-19T08:32:32;5.38;;;4.82;;
15385;SDS011;7791;47.246;9.648;2023-06-19T08:38:06;9.20;;;6.00;;
15385;SDS011;7791;47.246;9.648;2023-06-19T08:40:38;6.95;;;5.50;;
15385;SDS011;7791;47.246;9.648;2023-06-19T08:43:26;6.07;;;5.47;;
15385;SDS011;7791;47.246;9.648;2023-06-19T08:46:11;7.53;;;5.70;;
15385;SDS011;7791;47.246;9.648;2023-06-19T08:48:48;9.40;;;5.50;;
15385;SDS011;7791;47.246;9.648;2023-06-19T08:54:11;6.47;;;5.88;;
15385;SDS011;7791;47.246;9.648;2023-06-19T08:56:52;6.25;;;5.63;;
15385;SDS011;7791;47.246;9.648;2023-06-19T09:05:42;6.90;;;6.18;;
15385;SDS011;7791;47.246;9.648;2023-06-19T09:08:28;7.70;;;6.30;;
15385;SDS011;7791;47.246;9.648;2023-06-19T09:11:05;8.90;;;5.80;;
15385;SDS011;7791;47.246;9.648;2023-06-19T09:13:39;8.35;;;6.53;;
15385;SDS011;7791;47.246;9.648;2023-06-19T09:16:15;6.65;;;6.05;;
15385;SDS011;7791;47.246;9.648;2023-06-19T09:18:45;8.27;;;5.88;;
15385;SDS011;7791;47.246;9.648;2023-06-19T09:21:23;6.20;;;5.60;;
15385;SDS011;7791;47.246;9.648;2023-06-19T09:24:13;9.07;;;5.78;;
15385;SDS011;7791;47.246;9.648;2023-06-19T09:27:16;7.15;;;5.88;;
15385;SDS011;7791;47.246;9.648;2023-06-19T09:29:51;8.25;;;6.07;;
15385;SDS011;7791;47.246;9.648;2023-06-19T09:32:34;6.40;;;5.80;;
15385;SDS011;7791;47.246;9.648;2023-06-19T09:35:15;6.93;;;5.97;;
15385;SDS011;7791;47.246;9.648;2023-06-19T09:37:56;6.75;;;6.15;;
15385;SDS011;7791;47.246;9.648;2023-06-19T09:40:33;6.75;;;6.15;;
15385;SDS011;7791;47.246;9.648;2023-06-19T09:43:33;6.97;;;6.05;;
15385;SDS011;7791;47.246;9.648;2023-06-19T09:46:07;7.40;;;6.07;;
15385;SDS011;7791;47.246;9.648;2023-06-19T09:49:02;6.95;;;6.28;;
15385;SDS011;7791;47.246;9.648;2023-06-19T09:54:38;7.35;;;6.38;;
15385;SDS011;7791;47.246;9.648;2023-06-19T09:57:16;6.93;;;6.15;;
15385;SDS011;7791;47.246;9.648;2023-06-19T10:00:00;7.22;;;6.10;;
15385;SDS011;7791;47.246;9.648;2023-06-19T10:02:33;6.93;;;6.20;;
15385;SDS011;7791;47.246;9.648;2023-06-19T10:05:12;6.60;;;6.00;;
15385;SDS011;7791;47.246;9.648;2023-06-19T10:08:00;7.57;;;6.78;;
15385;SDS011;7791;47.246;9.648;2023-06-19T10:10:45;12.52;;;8.63;;
15385;SDS011;7791;47.246;9.648;2023-06-19T10:13:37;10.85;;;7.65;;
15385;SDS011;7791;47.246;9.648;2023-06-19T10:19:29;9.20;;;5.78;;
15385;SDS011;7791;47.246;9.648;2023-06-19T10:22:08;6.53;;;5.93;;
15385;SDS011;7791;47.246;9.648;2023-06-19T10:25:02;7.18;;;6.20;;
15385;SDS011;7791;47.246;9.648;2023-06-19T10:27:38;7.47;;;6.63;;
15385;SDS011;7791;47.246;9.648;2023-06-19T10:30:23;8.52;;;7.30;;
15385;SDS011;7791;47.246;9.648;2023-06-19T10:32:59;6.95;;;6.35;;
15385;SDS011;7791;47.246;9.648;2023-06-19T10:35:44;7.57;;;6.60;;
15385;SDS011;7791;47.246;9.648;2023-06-19T10:38:19;7.60;;;6.10;;
15385;SDS011;7791;47.246;9.648;2023-06-19T10:41:26;6.55;;;5.70;;
15385;SDS011;7791;47.246;9.648;2023-06-19T10:47:15;5.35;;;4.85;;
15385;SDS011;7791;47.246;9.648;2023-06-19T10:49:48;6.13;;;5.38;;
15385;SDS011;7791;47.246;9.648;2023-06-19T10:52:27;8.35;;;6.05;;
15385;SDS011;7791;47.246;9.648;2023-06-19T10:55:08;5.43;;;4.93;;
15385;SDS011;7791;47.246;9.648;2023-06-19T10:58:11;7.68;;;5.25;;
15385;SDS011;7791;47.246;9.648;2023-06-19T11:00:46;5.47;;;4.63;;
15385;SDS011;7791;47.246;9.648;2023-06-19T11:03:19;8.57;;;4.88;;
15385;SDS011;7791;47.246;9.648;2023-06-19T11:06:07;8.23;;;4.93;;
15385;SDS011;7791;47.246;9.648;2023-06-19T11:08:54;5.45;;;4.68;;
15385;SDS011;7791;47.246;9.648;2023-06-19T11:11:24;5.05;;;4.32;;
15385;SDS011;7791;47.246;9.648;2023-06-19T11:17:11;6.70;;;4.32;;
15385;SDS011;7791;47.246;9.648;2023-06-19T11:19:56;4.68;;;4.20;;
15385;SDS011;7791;47.246;9.648;2023-06-19T11:22:37;4.72;;;4.32;;
15385;SDS011;7791;47.246;9.648;2023-06-19T11:25:12;5.75;;;4.22;;
15385;SDS011;7791;47.246;9.648;2023-06-19T11:27:52;4.80;;;4.00;;
15385;SDS011;7791;47.246;9.648;2023-06-19T11:30:32;4.57;;;4.18;;
15385;SDS011;7791;47.246;9.648;2023-06-19T11:38:58;7.53;;;4.70;;
15385;SDS011;7791;47.246;9.648;2023-06-19T11:41:31;4.97;;;4.43;;
15385;SDS011;7791;47.246;9.648;2023-06-19T11:44:10;5.65;;;4.30;;
15385;SDS011;7791;47.246;9.648;2023-06-19T11:46:56;4.45;;;4.05;;
15385;SDS011;7791;47.246;9.648;2023-06-19T11:49:33;5.32;;;3.92;;
15385;SDS011;7791;47.246;9.648;2023-06-19T11:52:19;4.38;;;3.97;;
15385;SDS011;7791;47.246;9.648;2023-06-19T11:54:47;4.55;;;4.15;;
15385;SDS011;7791;47.246;9.648;2023-06-19T11:57:23;4.72;;;3.85;;
15385;SDS011;7791;47.246;9.648;2023-06-19T11:59:55;5.93;;;4.18;;
15385;SDS011;7791;47.246;9.648;2023-06-19T12:02:39;5.57;;;3.90;;
15385;SDS011;7791;47.246;9.648;2023-06-19T12:05:21;5.85;;;4.15;;
15385;SDS011;7791;47.246;9.648;2023-06-19T12:08:12;4.57;;;4.18;;
15385;SDS011;7791;47.246;9.648;2023-06-19T12:10:54;4.55;;;4.13;;
15385;SDS011;7791;47.246;9.648;2023-06-19T12:13:44;4.32;;;3.85;;
15385;SDS011;7791;47.246;9.648;2023-06-19T12:16:39;5.15;;;3.90;;
15385;SDS011;7791;47.246;9.648;2023-06-19T12:19:19;4.35;;;3.90;;
15385;SDS011;7791;47.246;9.648;2023-06-19T12:21:55;5.10;;;4.30;;
15385;SDS011;7791;47.246;9.648;2023-06-19T12:24:27;4.97;;;3.50;;
15385;SDS011;7791;47.246;9.648;2023-06-19T12:27:15;4.32;;;3.90;;
15385;SDS011;7791;47.246;9.648;2023-06-19T12:30:49;5.82;;;4.00;;
15385;SDS011;7791;47.246;9.648;2023-06-19T12:33:09;4.05;;;3.20;;
15385;SDS011;7791;47.246;9.648;2023-06-19T12:35:57;4.10;;;3.80;;
15385;SDS011;7791;47.246;9.648;2023-06-19T12:38:54;4.38;;;3.65;;
15385;SDS011;7791;47.246;9.648;2023-06-19T12:41:28;3.85;;;3.47;;
15385;SDS011;7791;47.246;9.648;2023-06-19T12:43:57;5.93;;;3.75;;
15385;SDS011;7791;47.246;9.648;2023-06-19T12:46:29;3.97;;;3.25;;
15385;SDS011;7791;47.246;9.648;2023-06-19T12:49:19;4.78;;;3.70;;
15385;SDS011;7791;47.246;9.648;2023-06-19T12:55:01;4.25;;;3.60;;
15385;SDS011;7791;47.246;9.648;2023-06-19T12:57:38;5.63;;;3.42;;
15385;SDS011;7791;47.246;9.648;2023-06-19T13:00:17;3.83;;;3.10;;
15385;SDS011;7791;47.246;9.648;2023-06-19T13:02:53;3.40;;;3.10;;
15385;SDS011;7791;47.246;9.648;2023-06-19T13:08:27;3.83;;;3.33;;
15385;SDS011;7791;47.246;9.648;2023-06-19T13:11:02;4.78;;;3.67;;
15385;SDS011;7791;47.246;9.648;2023-06-19T13:13:43;5.35;;;3.30;;
15385;SDS011;7791;47.246;9.648;2023-06-19T13:16:18;3.65;;;3.28;;
15385;SDS011;7791;47.246;9.648;2023-06-19T13:19:04;5.45;;;3.60;;
15385;SDS011;7791;47.246;9.648;2023-06-19T13:21:39;4.15;;;3.30;;
15385;SDS011;7791;47.246;9.648;2023-06-19T13:24:26;8.15;;;3.30;;
15385;SDS011;7791;47.246;9.648;2023-06-19T13:27:08;6.55;;;3.75;;
15385;SDS011;7791;47.246;9.648;2023-06-19T13:29:46;3.95;;;3.55;;
15385;SDS011;7791;47.246;9.648;2023-06-19T13:35:13;4.75;;;3.70;;
15385;SDS011;7791;47.246;9.648;2023-06-19T13:38:06;4.75;;;3.50;;
15385;SDS011;7791;47.246;9.648;2023-06-19T13:40:53;4.22;;;3.25;;
15385;SDS011;7791;47.246;9.648;2023-06-19T13:43:39;4.13;;;3.83;;
15385;SDS011;7791;47.246;9.648;2023-06-19T13:49:05;3.92;;;3.63;;
15385;SDS011;7791;47.246;9.648;2023-06-19T13:51:56;6.43;;;3.88;;
15385;SDS011;7791;47.246;9.648;2023-06-19T13:57:09;5.90;;;4.05;;
15385;SDS011;7791;47.246;9.648;2023-06-19T13:59:51;4.50;;;4.10;;
15385;SDS011;7791;47.246;9.648;2023-06-19T14:02:40;6.00;;;3.95;;
15385;SDS011;7791;47.246;9.648;2023-06-19T14:05:11;4.63;;;4.22;;
15385;SDS011;7791;47.246;9.648;2023-06-19T14:07:44;5.10;;;4.60;;
15385;SDS011;7791;47.246;9.648;2023-06-19T14:10:29;5.57;;;4.53;;
15385;SDS011;7791;47.246;9.648;2023-06-19T14:13:15;6.55;;;4.45;;
15385;SDS011;7791;47.246;9.648;2023-06-19T14:15:45;4.90;;;4.38;;
15385;SDS011;7791;47.246;9.648;2023-06-19T14:18:30;5.00;;;4.20;;
15385;SDS011;7791;47.246;9.648;2023-06-19T14:21:30;5.78;;;4.05;;
15385;SDS011;7791;47.246;9.648;2023-06-19T14:24:09;6.32;;;4.43;;
15385;SDS011;7791;47.246;9.648;2023-06-19T14:26:56;5.60;;;4.32;;
15385;SDS011;7791;47.246;9.648;2023-06-19T14:29:53;5.63;;;4.78;;
15385;SDS011;7791;47.246;9.648;2023-06-19T14:35:34;4.63;;;4.22;;
15385;SDS011;7791;47.246;9.648;2023-06-19T14:38:03;5.00;;;4.50;;
15385;SDS011;7791;47.246;9.648;2023-06-19T14:40:45;8.55;;;4.50;;
15385;SDS011;7791;47.246;9.648;2023-06-19T14:43:22;5.00;;;4.50;;
15385;SDS011;7791;47.246;9.648;2023-06-19T14:48:36;5.70;;;4.38;;
15385;SDS011;7791;47.246;9.648;2023-06-19T14:51:11;4.75;;;4.35;;
15385;SDS011;7791;47.246;9.648;2023-06-19T14:53:54;6.03;;;4.28;;
15385;SDS011;7791;47.246;9.648;2023-06-19T14:56:32;5.95;;;4.30;;
15385;SDS011;7791;47.246;9.648;2023-06-19T14:59:14;5.95;;;4.60;;
15385;SDS011;7791;47.246;9.648;2023-06-19T15:01:52;6.45;;;4.57;;
15385;SDS011;7791;47.246;9.648;2023-06-19T15:04:36;6.00;;;4.88;;
15385;SDS011;7791;47.246;9.648;2023-06-19T15:07:27;7.35;;;5.13;;
15385;SDS011;7791;47.246;9.648;2023-06-19T15:09:59;5.10;;;4.60;;
15385;SDS011;7791;47.246;9.648;2023-06-19T15:12:30;5.10;;;4.38;;
15385;SDS011;7791;47.246;9.648;2023-06-19T15:15:09;7.68;;;4.93;;
15385;SDS011;7791;47.246;9.648;2023-06-19T15:17:45;4.85;;;4.45;;
15385;SDS011;7791;47.246;9.648;2023-06-19T15:20:13;6.22;;;4.97;;
15385;SDS011;7791;47.246;9.648;2023-06-19T15:22:47;5.55;;;4.75;;
15385;SDS011;7791;47.246;9.648;2023-06-19T15:25:24;5.95;;;5.03;;
15385;SDS011;7791;47.246;9.648;2023-06-19T15:28:06;5.43;;;4.93;;
15385;SDS011;7791;47.246;9.648;2023-06-19T15:30:58;5.50;;;4.90;;
15385;SDS011;7791;47.246;9.648;2023-06-19T15:33:30;6.10;;;5.03;;
15385;SDS011;7791;47.246;9.648;2023-06-19T15:36:16;5.80;;;4.93;;
15385;SDS011;7791;47.246;9.648;2023-06-19T15:41:50;6.05;;;5.45;;
15385;SDS011;7791;47.246;9.648;2023-06-19T15:44:37;7.25;;;5.63;;
15385;SDS011;7791;47.246;9.648;2023-06-19T15:47:11;8.75;;;5.30;;
15385;SDS011;7791;47.246;9.648;2023-06-19T15:49:46;6.60;;;5.05;;
15385;SDS011;7791;47.246;9.648;2023-06-19T15:52:16;6.07;;;5.47;;
15385;SDS011;7791;47.246;9.648;2023-06-19T15:54:52;6.43;;;5.70;;
15385;SDS011;7791;47.246;9.648;2023-06-19T15:57:33;7.18;;;5.43;;
15385;SDS011;7791;47.246;9.648;2023-06-19T16:00:02;8.00;;;5.30;;
15385;SDS011;7791;47.246;9.648;2023-06-19T16:02:30;6.68;;;5.88;;
15385;SDS011;7791;47.246;9.648;2023-06-19T16:05:01;6.25;;;5.60;;
15385;SDS011;7791;47.246;9.648;2023-06-19T16:07:42;5.57;;;4.90;;
15385;SDS011;7791;47.246;9.648;2023-06-19T16:10:20;7.20;;;5.40;;
15385;SDS011;7791;47.246;9.648;2023-06-19T16:21:39;5.82;;;4.68;;
15385;SDS011;7791;47.246;9.648;2023-06-19T16:27:24;5.40;;;4.90;;
15385;SDS011;7791;47.246;9.648;2023-06-19T16:29:56;5.25;;;4.60;;
15385;SDS011;7791;47.246;9.648;2023-06-19T16:35:33;5.10;;;4.60;;
15385;SDS011;7791;47.246;9.648;2023-06-19T16:38:13;5.43;;;4.90;;
15385;SDS011;7791;47.246;9.648;2023-06-19T16:40:46;7.07;;;4.93;;
15385;SDS011;7791;47.246;9.648;2023-06-19T16:46:05;7.20;;;4.47;;
15385;SDS011;7791;47.246;9.648;2023-06-19T16:48:55;6.35;;;4.57;;
15385;SDS011;7791;47.246;9.648;2023-06-19T16:51:50;7.43;;;4.55;;
15385;SDS011;7791;47.246;9.648;2023-06-19T16:54:23;5.57;;;4.20;;
15385;SDS011;7791;47.246;9.648;2023-06-19T16:56:56;4.72;;;4.15;;
15385;SDS011;7791;47.246;9.648;2023-06-19T17:00:11;11.77;;;4.57;;
15385;SDS011;7791;47.246;9.648;2023-06-19T17:03:00;8.57;;;4.47;;
15385;SDS011;7791;47.246;9.648;2023-06-19T17:05:51;12.60;;;4.65;;
15385;SDS011;7791;47.246;9.648;2023-06-19T17:08:30;7.15;;;4.90;;
15385;SDS011;7791;47.246;9.648;2023-06-19T17:11:03;7.68;;;4.30;;
15385;SDS011;7791;47.246;9.648;2023-06-19T17:13:51;5.70;;;3.88;;
15385;SDS011;7791;47.246;9.648;2023-06-19T17:16:27;17.50;;;6.50;;
15385;SDS011;7791;47.246;9.648;2023-06-19T17:19:14;17.55;;;6.63;;
15385;SDS011;7791;47.246;9.648;2023-06-19T17:22:03;12.63;;;6.18;;
15385;SDS011;7791;47.246;9.648;2023-06-19T17:24:46;7.53;;;5.80;;
15385;SDS011;7791;47.246;9.648;2023-06-19T17:27:31;22.55;;;5.82;;
15385;SDS011;7791;47.246;9.648;2023-06-19T17:30:17;14.65;;;4.13;;
15385;SDS011;7791;47.246;9.648;2023-06-19T17:36:07;8.47;;;3.67;;
15385;SDS011;7791;47.246;9.648;2023-06-19T17:41:34;7.00;;;3.27;;
15385;SDS011;7791;47.246;9.648;2023-06-19T17:44:10;3.80;;;3.17;;
15385;SDS011;7791;47.246;9.648;2023-06-19T17:46:49;5.60;;;3.67;;
15385;SDS011;7791;47.246;9.648;2023-06-19T17:49:19;5.33;;;3.80;;
15385;SDS011;7791;47.246;9.648;2023-06-19T17:52:14;9.03;;;4.00;;
15385;SDS011;7791;47.246;9.648;2023-06-19T17:55:03;7.30;;;3.73;;
15385;SDS011;7791;47.246;9.648;2023-06-19T18:00:23;6.73;;;4.70;;
15385;SDS011;7791;47.246;9.648;2023-06-19T18:05:34;7.20;;;5.53;;
15385;SDS011;7791;47.246;9.648;2023-06-19T18:08:19;7.30;;;5.70;;
15385;SDS011;7791;47.246;9.648;2023-06-19T18:13:52;10.37;;;6.57;;
15385;SDS011;7791;47.246;9.648;2023-06-19T18:16:32;8.70;;;6.83;;
15385;SDS011;7791;47.246;9.648;2023-06-19T18:19:14;9.30;;;7.30;;
15385;SDS011;7791;47.246;9.648;2023-06-19T18:22:08;10.17;;;7.10;;
15385;SDS011;7791;47.246;9.648;2023-06-19T18:24:41;13.90;;;7.67;;
15385;SDS011;7791;47.246;9.648;2023-06-19T18:27:17;10.30;;;7.10;;
15385;SDS011;7791;47.246;9.648;2023-06-19T18:32:57;12.47;;;8.03;;
15385;SDS011;7791;47.246;9.648;2023-06-19T18:38:24;10.40;;;7.07;;
15385;SDS011;7791;47.246;9.648;2023-06-19T18:41:06;18.97;;;7.20;;
15385;SDS011;7791;47.246;9.648;2023-06-19T18:43:48;12.70;;;7.45;;
15385;SDS011;7791;47.246;9.648;2023-06-19T18:46:29;11.05;;;6.70;;
15385;SDS011;7791;47.246;9.648;2023-06-19T18:49:13;9.85;;;6.15;;
15385;SDS011;7791;47.246;9.648;2023-06-19T18:51:48;8.57;;;5.33;;
15385;SDS011;7791;47.246;9.648;2023-06-19T18:54:24;9.20;;;5.90;;